Time;durP1;ratioP1;P1;durP2;ratioP2;P2;SDS_P1;SDS_P2;PMS_P1;PMS_P2;Temp;Humidity;BMP_temperature;BMP_pressure;BME280_temperature;BME280_humidity;BME280_pressure;Samples;Min_cycle;Max_cycle;Signal;HPM_P1;HPM_P2
2022/06/29 00:01:21;;;;;;;12.50;4.35;;;;;;;23.26;61.32;100636.56;5013927;28;20029;-87
2022/06/29 00:03:47;;;;;;;15.82;4.38;;;;;;;23.18;60.71;100625.75;5014085;28;20026;-87
2022/06/29 00:06:12;;;;;;;11.13;3.90;;;;;;;23.17;61.08;100632.31;5013953;28;20092;-86
2022/06/29 00:08:38;;;;;;;17.83;4.20;;;;;;;23.10;60.00;100628.69;5013616;28;20036;-86
2022/06/29 00:11:03;;;;;;;14.68;4.72;;;;;;;23.10;59.67;100631.44;5013814;28;20029;-87
2022/06/29 00:13:29;;;;;;;11.88;3.30;;;;;;;23.09;58.06;100643.47;5010052;28;20100;-86
2022/06/29 00:15:54;;;;;;;7.75;4.00;;;;;;;22.93;58.17;100608.19;4994268;28;20105;-86
2022/06/29 00:18:20;;;;;;;10.35;3.63;;;;;;;23.02;58.21;100632.50;4995175;28;20030;-86
2022/06/29 00:20:46;;;;;;;12.98;3.55;;;;;;;23.02;58.90;100632.50;4993957;28;20022;-86
2022/06/29 00:23:11;;;;;;;11.35;4.10;;;;;;;23.06;58.31;100613.69;4995452;28;20113;-87
2022/06/29 00:25:37;;;;;;;7.00;3.65;;;;;;;22.93;58.65;100606.28;4997456;28;20790;-87
2022/06/29 00:28:03;;;;;;;16.25;3.63;;;;;;;23.02;59.09;100627.00;5010243;28;20022;-85
2022/06/29 00:30:28;;;;;;;11.20;3.50;;;;;;;23.02;59.13;100629.75;5008290;28;20026;-87
2022/06/29 00:32:54;;;;;;;26.75;3.90;;;;;;;23.07;59.27;100627.22;4996749;28;20103;-87
2022/06/29 00:35:19;;;;;;;16.25;4.40;;;;;;;23.11;59.20;100624.91;4994793;28;20037;-87
2022/06/29 00:37:45;;;;;;;8.68;3.42;;;;;;;23.13;59.06;100617.31;4993251;28;20022;-87
2022/06/29 00:40:11;;;;;;;14.10;3.80;;;;;;;23.17;58.63;100624.09;4993235;28;20057;-87
2022/06/29 00:42:37;;;;;;;20.52;4.70;;;;;;;23.08;57.26;100622.59;4993436;28;20476;-86
2022/06/29 00:45:03;;;;;;;8.93;3.22;;;;;;;23.12;57.02;100627.44;4993452;28;20066;-88
2022/06/29 00:47:29;;;;;;;13.00;3.78;;;;;;;23.15;57.07;100623.44;4993568;28;20034;-86
2022/06/29 00:49:55;;;;;;;12.07;3.92;;;;;;;23.19;56.89;100622.81;4993362;28;20027;-87
2022/06/29 00:52:24;;;;;;;11.57;3.80;;;;;;;23.19;55.95;100617.34;4994017;28;20029;-87
2022/06/29 00:54:59;;;;;;;10.77;2.80;;;;;;;23.17;55.15;100618.59;4993362;28;20029;-85
2022/06/29 00:57:27;;;;;;;10.85;3.45;;;;;;;23.20;55.41;100618.19;4993724;28;20493;-86
2022/06/29 00:59:55;;;;;;;14.35;3.63;;;;;;;23.17;55.49;100615.84;4999420;28;20041;-87
2022/06/29 01:02:23;;;;;;;10.20;3.90;;;;;;;23.19;55.85;100611.00;5002043;28;20026;-88
2022/06/29 01:04:49;;;;;;;17.17;3.58;;;;;;;23.21;56.10;100611.63;5003652;28;20054;-86
2022/06/29 01:07:16;;;;;;;8.07;3.42;;;;;;;23.24;53.67;100608.47;5000431;28;20030;-87
2022/06/29 01:09:45;;;;;;;12.95;3.65;;;;;;;23.23;53.51;100607.66;4993401;28;20030;-88
2022/06/29 01:12:12;;;;;;;11.32;3.45;;;;;;;23.24;53.46;100613.97;4993368;28;20032;-86
2022/06/29 01:14:41;;;;;;;17.80;3.33;;;;;;;23.22;53.51;100616.94;4993569;28;20065;-87
2022/06/29 01:17:07;;;;;;;7.70;2.75;;;;;;;23.18;53.13;100620.28;4993101;28;20050;-87
2022/06/29 01:19:32;;;;;;;11.80;2.85;;;;;;;23.05;52.73;100609.28;4993626;28;20491;-87
2022/06/29 01:22:07;;;;;;;12.98;3.13;;;;;;;23.13;53.39;100614.56;4993527;28;20084;-86
2022/06/29 01:24:33;;;;;;;9.63;2.35;;;;;;;23.11;53.27;100612.06;4993185;28;20027;-87
2022/06/29 01:26:58;;;;;;;13.02;3.38;;;;;;;23.14;52.97;100613.53;4993229;28;20484;-86
2022/06/29 01:29:24;;;;;;;6.15;2.70;;;;;;;23.17;52.81;100613.13;4993173;28;20023;-86
2022/06/29 01:31:54;;;;;;;13.80;2.90;;;;;;;23.14;52.75;100608.03;4994911;28;20073;-85
2022/06/29 01:34:19;;;;;;;13.45;2.83;;;;;;;23.18;52.59;100620.28;4979346;28;20026;-86
2022/06/29 01:36:44;;;;;;;14.95;3.38;;;;;;;23.22;52.69;100625.16;4997099;28;20022;-87
2022/06/29 01:39:10;;;;;;;11.85;3.20;;;;;;;23.23;52.29;100628.75;4979850;28;20066;-87
2022/06/29 01:41:35;;;;;;;13.77;3.38;;;;;;;23.21;52.25;100619.84;4997237;28;20034;-88
2022/06/29 01:44:01;;;;;;;12.07;2.65;;;;;;;23.22;52.66;100624.31;4997640;28;20468;-87
2022/06/29 01:46:26;;;;;;;8.90;2.60;;;;;;;23.14;52.38;100621.75;4996493;28;20050;-87
2022/06/29 01:48:52;;;;;;;7.90;2.85;;;;;;;23.09;52.56;100605.06;4979256;28;20057;-87
2022/06/29 01:51:18;;;;;;;12.15;3.05;;;;;;;23.14;52.46;100627.25;4997119;28;20058;-86
2022/06/29 01:53:44;;;;;;;6.68;3.15;;;;;;;23.12;52.35;100621.94;4996448;28;20030;-86
2022/06/29 01:56:09;;;;;;;6.88;2.30;;;;;;;23.14;52.36;100621.75;4996199;28;20027;-86
2022/06/29 01:58:35;;;;;;;11.82;2.75;;;;;;;23.15;52.36;100623.44;4996705;28;20395;-85
2022/06/29 02:01:00;;;;;;;10.80;3.25;;;;;;;23.16;52.50;100625.13;4998297;28;20037;-86
2022/06/29 02:03:25;;;;;;;13.43;2.78;;;;;;;23.18;52.42;100620.28;4997380;28;20030;-86
2022/06/29 02:05:51;;;;;;;12.23;2.42;;;;;;;23.18;52.09;100621.13;5004792;28;20100;-85
2022/06/29 02:08:16;;;;;;;4.82;2.45;;;;;;;23.15;51.91;100615.19;5003348;28;20044;-86
2022/06/29 02:10:42;;;;;;;11.63;2.90;;;;;;;23.22;52.29;100616.06;4996215;28;20057;-86
2022/06/29 02:13:07;;;;;;;8.88;2.65;;;;;;;23.19;52.39;100616.50;4996128;28;20041;-86
2022/06/29 02:15:33;;;;;;;11.93;2.80;;;;;;;23.24;51.81;100622.19;4995700;28;20532;-86
2022/06/29 02:17:58;;;;;;;9.73;3.00;;;;;;;23.25;52.34;100626.63;4995981;28;20381;-86
2022/06/29 02:20:24;;;;;;;13.13;3.08;;;;;;;23.24;52.17;100625.78;4979532;28;20030;-87
2022/06/29 02:22:49;;;;;;;19.45;3.88;;;;;;;23.26;51.81;100623.69;4997712;28;20030;-86
2022/06/29 02:25:15;;;;;;;11.30;3.35;;;;;;;23.30;51.82;100622.22;4998022;28;20403;-87
2022/06/29 02:27:44;;;;;;;13.73;3.08;;;;;;;23.28;51.63;100629.81;5001545;28;20061;-87
2022/06/29 02:30:12;;;;;;;9.02;2.47;;;;;;;23.32;51.95;100630.25;5002730;28;20408;-86
2022/06/29 02:35:22;;;;;;;5.70;2.38;;;;;;;23.33;51.28;100622.88;4998462;28;20053;-86
2022/06/29 02:37:47;;;;;;;8.02;2.58;;;;;;;23.35;51.34;100624.34;4995411;28;20026;-87
2022/06/29 02:40:13;;;;;;;17.20;3.75;;;;;;;23.35;51.63;100627.09;4995856;28;20473;-87
2022/06/29 02:42:38;;;;;;;14.15;6.18;;;;;;;23.38;51.23;100621.19;4995529;28;20044;-88
2022/06/29 02:45:04;;;;;;;6.45;2.38;;;;;;;23.38;51.36;100620.34;4995761;28;20078;-87
2022/06/29 02:47:30;;;;;;;16.70;3.10;;;;;;;23.40;50.92;100621.00;5000497;28;20061;-87
2022/06/29 02:49:55;;;;;;;11.65;2.55;;;;;;;23.40;50.86;100616.34;5006766;28;20034;-87
2022/06/29 02:52:21;;;;;;;12.63;3.17;;;;;;;23.44;51.00;100625.88;5010863;28;20034;-86
2022/06/29 02:54:46;;;;;;;7.78;2.88;;;;;;;23.45;50.47;100622.09;5004813;28;20407;-88
2022/06/29 02:57:11;;;;;;;6.57;2.25;;;;;;;23.45;50.11;100622.09;4996533;28;20101;-87
2022/06/29 02:59:37;;;;;;;12.50;3.00;;;;;;;23.46;50.02;100622.91;4996239;28;20054;-87
2022/06/29 03:02:03;;;;;;;9.65;2.78;;;;;;;23.47;49.92;100622.72;4996674;28;20029;-87
2022/06/29 03:04:28;;;;;;;6.88;2.30;;;;;;;23.49;49.97;100631.56;4995950;28;20480;-87
2022/06/29 03:06:54;;;;;;;6.03;1.95;;;;;;;23.46;49.91;100626.50;4996642;28;20030;-87
2022/06/29 03:09:19;;;;;;;20.23;2.40;;;;;;;23.54;50.03;100630.97;4996238;28;20076;-87
2022/06/29 03:11:45;;;;;;;6.40;3.13;;;;;;;23.52;49.60;100628.41;5004297;28;20030;-87
2022/06/29 03:14:10;;;;;;;13.35;2.70;;;;;;;23.57;49.46;100625.91;5003378;28;20032;-88
2022/06/29 03:16:37;;;;;;;10.15;3.00;;;;;;;23.51;49.81;100629.50;4996515;28;20118;-88
2022/06/29 03:19:03;;;;;;;6.63;2.40;;;;;;;23.49;49.51;100623.34;4995812;28;20034;-87
2022/06/29 03:21:28;;;;;;;8.10;2.55;;;;;;;23.50;49.62;100625.03;4996103;28;20049;-86
2022/06/29 03:23:53;;;;;;;15.88;3.42;;;;;;;23.42;49.45;100619.75;4995951;28;20026;-86
2022/06/29 03:26:19;;;;;;;10.65;2.85;;;;;;;23.50;49.84;100636.03;4996492;28;20480;-86
2022/06/29 03:28:45;;;;;;;11.88;3.17;;;;;;;23.43;49.57;100618.69;4995993;28;20511;-85
2022/06/29 03:31:10;;;;;;;13.43;3.80;;;;;;;23.50;49.22;100625.03;4997170;28;20028;-85
2022/06/29 03:33:36;;;;;;;11.27;2.72;;;;;;;23.45;49.21;100604.75;4996456;28;20033;-87
2022/06/29 03:36:01;;;;;;;14.50;3.88;;;;;;;23.53;49.30;100621.03;4995515;28;20411;-87
2022/06/29 03:38:26;;;;;;;7.47;2.40;;;;;;;23.53;49.23;100624.63;4996063;28;20072;-86
2022/06/29 03:40:52;;;;;;;9.10;2.45;;;;;;;23.55;49.02;100625.25;5003476;28;20046;-86
2022/06/29 03:43:17;;;;;;;6.38;2.10;;;;;;;23.52;49.06;100622.94;5009231;28;20042;-86
2022/06/29 03:45:43;;;;;;;10.25;3.30;;;;;;;23.57;49.11;100628.66;4996614;28;20136;-87
2022/06/29 03:48:09;;;;;;;8.80;2.55;;;;;;;23.59;48.85;100634.78;4994225;28;20030;-87
2022/06/29 03:50:34;;;;;;;14.95;3.10;;;;;;;23.50;48.85;100611.31;4995063;28;20026;-87
2022/06/29 03:53:00;;;;;;;31.38;7.80;;;;;;;23.56;48.65;100632.44;4996307;28;20122;-87
2022/06/29 03:55:25;;;;;;;18.13;3.92;;;;;;;23.62;48.49;100628.88;4999032;28;20026;-85
2022/06/29 03:57:51;;;;;;;17.88;3.65;;;;;;;23.61;48.83;100632.66;5003867;28;20029;-86
2022/06/29 04:00:17;;;;;;;19.83;3.97;;;;;;;23.62;48.49;100623.38;5005463;28;20029;-86
2022/06/29 04:02:42;;;;;;;27.85;5.47;;;;;;;23.64;48.97;100625.88;5000401;28;20030;-86
2022/06/29 04:05:08;;;;;;;14.20;3.90;;;;;;;23.60;48.89;100636.47;4993645;28;20034;-83
2022/06/29 04:07:35;;;;;;;10.25;3.10;;;;;;;23.58;49.19;100624.84;4993702;28;20030;-83
2022/06/29 04:10:01;;;;;;;7.70;2.97;;;;;;;23.57;49.13;100630.56;4993868;28;20030;-84
2022/06/29 04:12:28;;;;;;;14.40;3.60;;;;;;;23.57;49.31;100625.91;4994068;28;20088;-81
2022/06/29 04:14:54;;;;;;;15.82;5.20;;;;;;;23.59;49.57;100621.03;4993270;28;20385;-83
2022/06/29 04:17:19;;;;;;;12.32;3.53;;;;;;;23.58;49.55;100622.09;4993160;28;20090;-79
2022/06/29 04:19:44;;;;;;;18.40;4.18;;;;;;;23.63;49.58;100630.56;4992945;28;20034;-81
2022/06/29 04:22:10;;;;;;;11.60;3.40;;;;;;;23.63;49.96;100635.19;4975442;28;20472;-81
2022/06/29 04:24:35;;;;;;;14.90;4.88;;;;;;;23.64;49.43;100637.72;4992818;28;20037;-81
2022/06/29 04:27:01;;;;;;;16.33;4.13;;;;;;;23.66;49.96;100635.63;4992672;28;20465;-80
2022/06/29 04:29:26;;;;;;;17.13;4.10;;;;;;;23.70;49.37;100631.41;4992891;28;20056;-80
2022/06/29 04:31:52;;;;;;;15.98;2.80;;;;;;;23.76;49.28;100635.19;4993067;28;20034;-84
2022/06/29 04:34:17;;;;;;;17.88;3.17;;;;;;;23.84;49.32;100627.63;4993049;28;20425;-83
2022/06/29 04:36:43;;;;;;;13.63;4.60;;;;;;;23.88;49.53;100638.19;4975583;28;20029;-84
2022/06/29 04:39:08;;;;;;;10.93;2.83;;;;;;;23.90;50.04;100638.81;4992932;28;20551;-83
2022/06/29 04:41:34;;;;;;;19.88;3.28;;;;;;;23.87;50.51;100636.47;4993023;28;20033;-79
2022/06/29 04:43:59;;;;;;;23.10;5.20;;;;;;;23.94;50.38;100634.59;4992711;28;20476;-75
2022/06/29 04:46:24;;;;;;;14.68;4.15;;;;;;;23.99;50.30;100643.88;4992305;28;20479;-77
2022/06/29 04:48:54;;;;;;;14.95;3.15;;;;;;;24.07;50.39;100648.31;4992281;28;20105;-77
2022/06/29 04:51:20;;;;;;;19.67;2.97;;;;;;;24.10;50.24;100647.88;4992016;28;20034;-76
2022/06/29 04:53:46;;;;;;;11.50;4.40;;;;;;;24.13;50.03;100642.00;4992139;28;20030;-75
2022/06/29 04:56:12;;;;;;;11.38;2.97;;;;;;;24.09;50.09;100640.72;4992445;28;20030;-80
2022/06/29 04:58:38;;;;;;;15.52;3.38;;;;;;;24.14;49.93;100643.69;4992138;28;20033;-76
2022/06/29 05:01:05;;;;;;;8.98;2.75;;;;;;;24.17;50.17;100643.28;4993012;28;20030;-82
2022/06/29 05:03:31;;;;;;;7.50;3.30;;;;;;;24.23;50.10;100647.91;4992767;28;20026;-85
2022/06/29 05:05:56;;;;;;;20.70;4.10;;;;;;;24.25;49.98;100640.28;4994428;28;20152;-79
2022/06/29 05:08:22;;;;;;;17.38;3.53;;;;;;;24.27;49.88;100635.44;4995553;28;20041;-80
2022/06/29 05:10:47;;;;;;;16.92;3.53;;;;;;;24.39;49.80;100641.97;4994619;28;20034;-78
2022/06/29 05:13:12;;;;;;;7.93;3.10;;;;;;;24.41;49.61;100636.25;4994971;28;20030;-80
2022/06/29 05:15:38;;;;;;;16.02;4.50;;;;;;;24.51;49.30;100634.75;4995590;28;20541;-79
2022/06/29 05:18:04;;;;;;;11.75;3.13;;;;;;;24.54;49.56;100642.59;4985061;28;20058;-79
2022/06/29 05:20:30;;;;;;;9.30;3.75;;;;;;;24.58;49.30;100632.84;5006887;28;20457;-78
2022/06/29 05:22:55;;;;;;;12.68;4.43;;;;;;;24.64;49.43;100637.47;4996549;28;20515;-79
2022/06/29 05:25:21;;;;;;;16.25;3.80;;;;;;;24.83;49.39;100641.28;4996744;28;20472;-77
2022/06/29 05:27:47;;;;;;;4.95;2.75;;;;;;;24.84;49.53;100630.03;4996847;28;20026;-78
2022/06/29 05:30:14;;;;;;;29.00;3.67;;;;;;;24.96;49.21;100634.84;4996341;28;20439;-77
2022/06/29 05:32:39;;;;;;;17.27;3.80;;;;;;;24.99;49.38;100626.16;4995117;28;20046;-77
2022/06/29 05:35:05;;;;;;;13.98;4.72;;;;;;;25.10;48.76;100628.22;4995062;28;20089;-78
2022/06/29 05:37:31;;;;;;;13.68;3.20;;;;;;;25.23;48.93;100636.41;4994998;28;20038;-77
2022/06/29 05:39:57;;;;;;;19.05;3.63;;;;;;;25.20;48.87;100620.31;4977899;28;20034;-79
2022/06/29 05:42:22;;;;;;;12.35;3.15;;;;;;;25.28;48.99;100626.44;4995958;28;20042;-78
2022/06/29 05:44:48;;;;;;;16.63;3.22;;;;;;;25.44;48.75;100636.09;4997357;28;20038;-78
2022/06/29 05:47:14;;;;;;;13.70;3.85;;;;;;;25.49;48.51;100628.03;5000503;28;20130;-77
2022/06/29 05:49:41;;;;;;;16.85;3.72;;;;;;;25.58;48.39;100637.72;5008662;28;20027;-76
2022/06/29 05:52:07;;;;;;;22.13;4.28;;;;;;;25.68;48.59;100640.84;4996889;28;20028;-80
2022/06/29 05:54:32;;;;;;;46.03;8.20;;;;;;;25.79;48.27;100648.38;4997643;28;20034;-82
2022/06/29 05:56:59;;;;;;;18.98;3.85;;;;;;;25.76;48.19;100636.94;4999829;28;20022;-81
2022/06/29 05:59:24;;;;;;;13.43;4.30;;;;;;;25.92;48.32;100648.28;5003479;28;20026;-81
2022/06/29 06:01:50;;;;;;;18.10;3.75;;;;;;;26.00;48.35;100652.66;5017458;28;20113;-82
2022/06/29 06:04:15;;;;;;;13.55;3.97;;;;;;;26.08;48.68;100654.31;5017531;28;20140;-79
2022/06/29 06:06:41;;;;;;;24.58;4.47;;;;;;;26.10;49.11;100652.16;5018126;28;20034;-80
2022/06/29 06:09:06;;;;;;;11.00;3.75;;;;;;;26.24;49.12;100645.47;5015872;28;20095;-81
2022/06/29 06:11:32;;;;;;;23.52;5.03;;;;;;;26.25;48.97;100652.69;5014856;28;20034;-80
2022/06/29 06:13:57;;;;;;;32.10;3.75;;;;;;;26.43;47.75;100666.50;4997121;28;20040;-81
2022/06/29 06:16:23;;;;;;;18.80;3.60;;;;;;;26.48;47.13;100659.22;5014869;28;20030;-80
2022/06/29 06:18:49;;;;;;;14.52;3.03;;;;;;;26.51;46.48;100653.25;5019578;28;20550;-79
2022/06/29 06:21:15;;;;;;;21.00;3.97;;;;;;;26.65;46.52;100667.78;5016130;28;20057;-79
2022/06/29 06:23:40;;;;;;;22.55;4.40;;;;;;;26.67;46.80;100656.50;5017468;28;20371;-80
2022/06/29 06:26:06;;;;;;;46.22;5.88;;;;;;;26.70;47.20;100654.13;5015042;28;20022;-79
2022/06/29 06:28:31;;;;;;;14.50;3.35;;;;;;;26.71;47.13;100655.81;5014218;28;20403;-79
2022/06/29 06:30:57;;;;;;;10.65;3.13;;;;;;;26.77;46.88;100654.91;5013725;28;20037;-81
2022/06/29 06:33:22;;;;;;;62.70;8.50;;;;;;;26.84;46.97;100647.44;5014206;28;20033;-79
2022/06/29 06:35:48;;;;;;;7.22;2.42;;;;;;;26.94;45.87;100644.94;5014257;28;20472;-80
2022/06/29 06:38:14;;;;;;;11.40;2.35;;;;;;;27.08;45.24;100642.03;5013701;28;20080;-79
2022/06/29 06:43:23;;;;;;;23.67;4.57;;;;;;;27.21;45.28;100634.44;5014703;28;20129;-80
2022/06/29 06:45:49;;;;;;;24.60;4.22;;;;;;;27.35;45.64;100640.59;5014281;28;20069;-80
2022/06/29 06:48:14;;;;;;;24.08;7.22;;;;;;;27.38;45.39;100638.22;5013701;28;20045;-80
2022/06/29 06:50:40;;;;;;;10.88;4.07;;;;;;;27.52;45.26;100636.16;4996833;28;20038;-82
2022/06/29 06:53:05;;;;;;;12.00;3.58;;;;;;;27.60;44.01;100638.56;5013956;28;20099;-77
2022/06/29 06:55:31;;;;;;;25.88;4.32;;;;;;;27.55;44.42;100630.16;5014294;28;20088;-77
2022/06/29 06:57:56;;;;;;;35.13;4.82;;;;;;;27.68;43.05;100640.97;5016130;28;20495;-78
2022/06/29 07:00:22;;;;;;;9.88;3.45;;;;;;;27.74;43.12;100640.03;5001278;28;20475;-79
2022/06/29 07:02:47;;;;;;;10.18;3.80;;;;;;;27.78;43.81;100635.72;4994134;28;20087;-78
2022/06/29 07:05:13;;;;;;;16.63;5.80;;;;;;;27.87;43.63;100647.28;4994724;28;20025;-79
2022/06/29 07:07:39;;;;;;;13.05;3.75;;;;;;;27.93;43.91;100643.56;4993767;28;20027;-78
2022/06/29 07:10:05;;;;;;;19.70;4.13;;;;;;;27.90;43.45;100644.88;4993793;28;20023;-79
2022/06/29 07:12:31;;;;;;;21.73;3.35;;;;;;;27.98;42.78;100655.59;4993246;28;20480;-78
2022/06/29 07:14:56;;;;;;;8.50;4.35;;;;;;;28.05;42.45;100650.81;4976204;28;20038;-78
2022/06/29 07:17:22;;;;;;;12.48;3.10;;;;;;;28.00;42.16;100645.16;4994113;28;20041;-79
2022/06/29 07:19:47;;;;;;;11.77;2.92;;;;;;;28.07;43.55;100643.13;4994180;28;20046;-78
2022/06/29 07:22:13;;;;;;;27.63;5.18;;;;;;;28.14;45.20;100653.22;4993929;28;20030;-81
2022/06/29 07:24:38;;;;;;;18.08;3.55;;;;;;;28.01;46.10;100657.88;4993926;28;20026;-79
2022/06/29 07:27:04;;;;;;;13.65;3.97;;;;;;;27.80;45.40;100647.38;4995879;28;20034;-82
2022/06/29 07:29:29;;;;;;;9.60;3.50;;;;;;;27.83;44.46;100654.34;4994226;28;20089;-82
2022/06/29 07:31:55;;;;;;;13.50;3.17;;;;;;;27.79;45.04;100654.00;4994192;28;20033;-83
2022/06/29 07:34:20;;;;;;;23.13;4.72;;;;;;;27.84;44.73;100656.88;4994296;28;20101;-82
2022/06/29 07:36:46;;;;;;;18.10;3.65;;;;;;;27.94;45.11;100657.16;4993719;28;20026;-82
2022/06/29 07:39:11;;;;;;;21.60;4.13;;;;;;;27.93;45.57;100649.94;4976669;28;20432;-81
2022/06/29 07:41:37;;;;;;;12.82;3.95;;;;;;;27.93;45.09;100649.94;4976477;28;20396;-82
2022/06/29 07:44:04;;;;;;;18.60;4.95;;;;;;;27.98;44.66;100658.34;4994493;28;20042;-82
2022/06/29 07:46:29;;;;;;;10.10;3.85;;;;;;;27.97;44.63;100656.69;4993872;28;20050;-83
2022/06/29 07:48:56;;;;;;;20.73;3.45;;;;;;;27.97;44.68;100644.78;4994229;28;20061;-83
2022/06/29 07:51:22;;;;;;;13.88;5.00;;;;;;;27.97;45.21;100656.69;4994050;28;20027;-82
2022/06/29 07:53:47;;;;;;;20.73;4.43;;;;;;;28.10;44.76;100653.72;4976569;28;20057;-83
2022/06/29 07:56:13;;;;;;;17.40;4.43;;;;;;;28.10;43.58;100650.94;4993976;28;20054;-81
2022/06/29 07:58:38;;;;;;;18.23;3.60;;;;;;;28.07;43.21;100656.13;4993963;28;20034;-77
2022/06/29 08:01:04;;;;;;;14.38;4.32;;;;;;;28.15;43.08;100658.53;4991676;28;20037;-77
2022/06/29 08:03:31;;;;;;;22.30;4.28;;;;;;;28.32;43.32;100653.97;4993217;28;20026;-76
2022/06/29 08:05:57;;;;;;;23.35;5.95;;;;;;;28.35;43.42;100652.63;4992569;28;20081;-76
2022/06/29 08:08:23;;;;;;;14.10;3.25;;;;;;;28.38;43.08;100653.00;4992938;28;20026;-76
2022/06/29 08:10:48;;;;;;;12.85;3.33;;;;;;;28.45;42.91;100642.66;4991540;28;20034;-77
2022/06/29 08:13:14;;;;;;;10.23;3.17;;;;;;;28.63;42.57;100639.75;4992966;28;20112;-78
2022/06/29 08:15:41;;;;;;;13.75;3.60;;;;;;;28.74;41.66;100640.88;4993174;28;20041;-76
2022/06/29 08:18:07;;;;;;;12.32;3.38;;;;;;;28.71;42.84;100634.97;4993062;28;20104;-77
2022/06/29 08:20:32;;;;;;;22.15;5.50;;;;;;;28.69;43.19;100624.13;4992836;28;20456;-77
2022/06/29 08:22:58;;;;;;;25.90;4.38;;;;;;;28.83;43.70;100633.88;4992861;28;20102;-76
2022/06/29 08:25:24;;;;;;;15.93;4.75;;;;;;;28.98;43.26;100636.97;4992968;28;20022;-76
2022/06/29 08:27:53;;;;;;;15.05;3.75;;;;;;;28.97;42.48;100635.28;4992926;28;20027;-76
2022/06/29 08:30:19;;;;;;;16.00;3.85;;;;;;;28.91;42.78;100629.88;4991382;28;20560;-77
2022/06/29 08:32:44;;;;;;;13.75;3.63;;;;;;;29.04;42.14;100635.97;4992774;28;20026;-76
2022/06/29 08:35:11;;;;;;;13.68;3.60;;;;;;;29.09;42.04;100633.31;4999109;28;20042;-77
2022/06/29 08:37:38;;;;;;;14.48;3.97;;;;;;;29.17;42.27;100630.13;5001277;28;20030;-77
2022/06/29 08:40:08;;;;;;;11.07;3.10;;;;;;;29.18;41.83;100631.81;4993586;28;20111;-78
2022/06/29 08:42:36;;;;;;;16.35;3.78;;;;;;;29.24;41.18;100618.94;4995594;28;20097;-76
2022/06/29 08:45:03;;;;;;;12.10;3.60;;;;;;;29.37;41.57;100623.34;4997315;28;20054;-76
2022/06/29 08:47:29;;;;;;;8.95;3.58;;;;;;;29.58;41.82;100639.28;5000313;28;20034;-76
2022/06/29 08:49:55;;;;;;;10.07;3.50;;;;;;;29.69;40.48;100630.88;4992419;28;20049;-75
2022/06/29 08:52:23;;;;;;;12.20;3.65;;;;;;;29.55;40.22;100642.53;4992684;28;20479;-78
2022/06/29 08:54:52;;;;;;;11.38;3.50;;;;;;;29.51;40.60;100624.75;4992379;28;20022;-76
2022/06/29 08:57:19;;;;;;;11.45;3.65;;;;;;;29.55;40.99;100625.91;4992336;28;20410;-76
2022/06/29 08:59:44;;;;;;;17.17;4.70;;;;;;;29.61;40.49;100619.38;4992306;28;20023;-77
2022/06/29 09:02:11;;;;;;;14.38;3.55;;;;;;;29.60;40.45;100617.72;4992829;28;20105;-76
2022/06/29 09:04:37;;;;;;;10.20;3.08;;;;;;;29.61;39.49;100611.06;4991893;28;20033;-77
2022/06/29 09:07:03;;;;;;;12.20;3.63;;;;;;;29.72;39.08;100604.63;4992853;28;20026;-76
2022/06/29 09:09:28;;;;;;;9.93;3.58;;;;;;;29.93;39.62;100612.22;4991992;28;20034;-76
2022/06/29 09:11:55;;;;;;;18.60;4.60;;;;;;;30.04;39.38;100614.06;4991685;28;20066;-76
2022/06/29 09:14:23;;;;;;;16.48;4.22;;;;;;;30.14;39.50;100618.94;4991785;28;20065;-77
2022/06/29 09:17:01;;;;;;;19.13;4.18;;;;;;;30.23;39.71;100615.47;4992089;28;20041;-76
2022/06/29 09:19:43;;;;;;;10.65;3.65;;;;;;;30.24;40.02;100619.91;4991706;28;20022;-77
2022/06/29 09:22:09;;;;;;;;;;;;;;;30.38;39.20;100616.78;4992197;28;20022;-76
2022/06/29 09:24:34;;;;;;;7.80;2.97;;;;;;;30.15;38.35;100596.47;4991791;28;19913;-76
2022/06/29 09:27:03;;;;;;;11.52;3.97;;;;;;;30.25;39.11;100595.78;4991928;28;20030;-77
2022/06/29 09:29:33;;;;;;;11.73;3.75;;;;;;;30.39;38.74;100593.53;4990753;28;20045;-76
2022/06/29 09:32:02;;;;;;;11.80;2.70;;;;;;;30.31;38.16;100596.69;4992338;28;20484;-77
2022/06/29 09:34:45;;;;;;;18.38;3.72;;;;;;;30.43;38.11;100605.78;4992078;28;20156;-77
2022/06/29 09:37:22;;;;;;;17.42;3.58;;;;;;;30.42;38.48;100587.47;4990254;28;20050;-77
2022/06/29 09:39:50;;;;;;;8.93;3.38;;;;;;;30.20;38.41;100582.69;4992347;28;20404;-76
2022/06/29 09:42:17;;;;;;;13.52;4.13;;;;;;;30.26;39.12;100596.63;4991659;28;20483;-76
2022/06/29 09:44:44;;;;;;;13.85;4.07;;;;;;;30.30;39.32;100595.03;4991479;28;20040;-76
2022/06/29 09:47:16;;;;;;;19.63;4.32;;;;;;;30.42;39.09;100593.03;4991677;28;20058;-75
2022/06/29 09:49:51;;;;;;;14.15;4.43;;;;;;;30.37;39.13;100567.91;4991743;28;20019;-77
2022/06/29 09:52:17;;;;;;;33.65;5.60;;;;;;;30.38;39.49;100580.72;4992310;28;20045;-77
2022/06/29 09:54:51;;;;;;;9.32;3.28;;;;;;;30.49;38.97;100582.56;4993896;28;20034;-77
2022/06/29 09:57:20;;;;;;;15.57;3.35;;;;;;;30.53;39.31;100579.03;4995241;28;20038;-77
2022/06/29 10:02:47;;;;;;;11.48;3.80;;;;;;;30.53;38.69;100562.38;4995206;28;20061;-78
2022/06/29 10:05:14;;;;;;;27.27;5.93;;;;;;;30.67;38.59;100579.50;4995375;28;20485;-77
2022/06/29 10:07:42;;;;;;;7.70;3.90;;;;;;;30.84;37.98;100580.25;4994682;28;20037;-75
2022/06/29 10:10:11;;;;;;;15.32;3.47;;;;;;;31.01;37.84;100581.03;4995014;28;20045;-76
2022/06/29 10:16:02;;;;;;;16.38;4.18;;;;;;;31.34;38.34;100580.03;5007256;28;20431;-75
2022/06/29 10:18:48;;;;;;;25.92;4.63;;;;;;;31.04;37.65;100585.28;4993458;28;20484;-76
2022/06/29 10:21:19;;;;;;;12.52;3.92;;;;;;;30.81;37.87;100586.34;4963836;28;20057;-76
2022/06/29 10:23:59;;;;;;;23.83;4.05;;;;;;;30.57;38.17;100559.91;4994322;28;20034;-75
2022/06/29 10:26:28;;;;;;;7.70;3.17;;;;;;;30.75;38.28;100581.81;4994324;28;20492;-75
2022/06/29 10:28:57;;;;;;;6.63;3.53;;;;;;;30.75;38.53;100582.66;4994211;28;20496;-76
2022/06/29 10:32:02;;;;;;;17.48;3.67;;;;;;;30.90;38.83;100579.22;4994209;28;20109;-76
2022/06/29 10:34:34;;;;;;;11.18;3.17;;;;;;;31.04;38.05;100572.19;4994676;28;20447;-75
2022/06/29 10:37:07;;;;;;;15.70;3.55;;;;;;;30.97;38.03;100574.34;4994510;28;20763;-76
2022/06/29 10:39:50;;;;;;;26.70;4.28;;;;;;;31.14;38.97;100575.09;4994037;28;20030;-75
2022/06/29 10:45:20;;;;;;;19.10;3.85;;;;;;;31.33;36.94;100570.00;4993999;28;20069;-77
2022/06/29 10:47:54;;;;;;;11.18;3.63;;;;;;;31.40;37.26;100567.88;4994266;28;20029;-77
2022/06/29 10:50:23;;;;;;;12.25;3.25;;;;;;;31.61;37.50;100574.47;4994495;28;20033;-76
2022/06/29 10:52:51;;;;;;;13.15;3.45;;;;;;;31.51;37.02;100560.47;4994415;28;20053;-76
2022/06/29 10:55:18;;;;;;;19.90;3.85;;;;;;;31.62;36.96;100553.94;4994472;28;20030;-77
2022/06/29 10:57:45;;;;;;;16.20;3.75;;;;;;;31.73;37.05;100555.69;4976765;28;20121;-75
2022/06/29 11:00:20;;;;;;;13.63;3.38;;;;;;;31.83;37.01;100566.91;4976799;28;20065;-76
2022/06/29 11:02:46;;;;;;;10.13;3.50;;;;;;;31.87;36.86;100540.19;4993919;28;20399;-76
2022/06/29 11:05:11;;;;;;;13.32;3.35;;;;;;;32.01;36.03;100560.91;4993097;28;20030;-75
2022/06/29 11:13:28;;;;;;;17.30;3.53;;;;;;;31.82;36.00;100548.53;4971241;28;20929;-78
2022/06/29 11:15:55;;;;;;;14.60;3.65;;;;;;;31.91;37.02;100552.47;4993956;28;20484;-77
2022/06/29 11:18:26;;;;;;;11.85;2.88;;;;;;;31.99;36.00;100554.75;4993477;28;20101;-76
2022/06/29 11:20:53;;;;;;;8.15;3.35;;;;;;;32.12;35.61;100554.34;4993980;28;20384;-75
2022/06/29 11:23:27;;;;;;;14.27;3.30;;;;;;;32.24;35.80;100546.63;4992914;28;20035;-75
2022/06/29 11:25:56;;;;;;;12.00;3.67;;;;;;;32.28;35.75;100553.31;4993667;28;20097;-77
2022/06/29 11:28:29;;;;;;;12.75;3.42;;;;;;;32.38;34.95;100549.78;4993376;28;20027;-78
2022/06/29 11:30:58;;;;;;;13.00;2.97;;;;;;;32.24;35.06;100541.03;4992061;28;20042;-77
2022/06/29 11:33:27;;;;;;;15.40;3.95;;;;;;;32.26;35.26;100549.94;4991240;28;20046;-76
2022/06/29 11:35:54;;;;;;;7.63;3.45;;;;;;;32.37;35.33;100545.28;4991169;28;20114;-76
2022/06/29 11:38:19;;;;;;;27.38;3.95;;;;;;;32.53;34.79;100537.88;4991205;28;20057;-76